sensor_id;sensor_type;location;lat;lon;timestamp;P1;durP1;ratioP1;P2;durP2;ratioP2
29358;SDS011;16347;53.232;6.556;2023-12-29T00:02:09;26.75;;;3.45;;
29358;SDS011;16347;53.232;6.556;2023-12-29T00:04:36;15.80;;;3.60;;
29358;SDS011;16347;53.232;6.556;2023-12-29T00:07:04;22.65;;;3.17;;
29358;SDS011;16347;53.232;6.556;2023-12-29T00:09:32;18.23;;;3.25;;
29358;SDS011;16347;53.232;6.556;2023-12-29T00:12:07;20.42;;;2.80;;
29358;SDS011;16347;53.232;6.556;2023-12-29T00:14:38;19.20;;;4.30;;
29358;SDS011;16347;53.232;6.556;2023-12-29T00:17:06;14.43;;;2.45;;
29358;SDS011;16347;53.232;6.556;2023-12-29T00:19:34;23.67;;;3.50;;
29358;SDS011;16347;53.232;6.556;2023-12-29T00:22:02;17.30;;;2.88;;
29358;SDS011;16347;53.232;6.556;2023-12-29T00:24:31;22.13;;;2.97;;
29358;SDS011;16347;53.232;6.556;2023-12-29T00:26:59;22.90;;;3.25;;
29358;SDS011;16347;53.232;6.556;2023-12-29T00:29:28;22.02;;;3.92;;
29358;SDS011;16347;53.232;6.556;2023-12-29T00:32:01;22.42;;;3.25;;
29358;SDS011;16347;53.232;6.556;2023-12-29T00:34:30;19.48;;;2.83;;
29358;SDS011;16347;53.232;6.556;2023-12-29T00:36:59;15.95;;;3.30;;
29358;SDS011;16347;53.232;6.556;2023-12-29T00:39:27;22.48;;;4.20;;
29358;SDS011;16347;53.232;6.556;2023-12-29T00:41:57;31.15;;;4.35;;
29358;SDS011;16347;53.232;6.556;2023-12-29T00:44:25;32.00;;;4.30;;
29358;SDS011;16347;53.232;6.556;2023-12-29T00:46:53;29.27;;;3.60;;
29358;SDS011;16347;53.232;6.556;2023-12-29T00:49:22;25.70;;;3.22;;
29358;SDS011;16347;53.232;6.556;2023-12-29T00:51:50;17.40;;;2.30;;
29358;SDS011;16347;53.232;6.556;2023-12-29T00:54:18;19.13;;;2.80;;
29358;SDS011;16347;53.232;6.556;2023-12-29T00:56:48;21.25;;;3.95;;
29358;SDS011;16347;53.232;6.556;2023-12-29T00:59:17;20.48;;;2.92;;
29358;SDS011;16347;53.232;6.556;2023-12-29T01:01:46;19.58;;;2.85;;
29358;SDS011;16347;53.232;6.556;2023-12-29T01:04:14;21.85;;;2.92;;
29358;SDS011;16347;53.232;6.556;2023-12-29T01:06:44;29.20;;;3.40;;
29358;SDS011;16347;53.232;6.556;2023-12-29T01:09:12;26.10;;;4.32;;
29358;SDS011;16347;53.232;6.556;2023-12-29T01:11:39;24.95;;;3.22;;
29358;SDS011;16347;53.232;6.556;2023-12-29T01:14:07;29.15;;;3.33;;
29358;SDS011;16347;53.232;6.556;2023-12-29T01:16:35;27.70;;;4.05;;
29358;SDS011;16347;53.232;6.556;2023-12-29T01:19:03;17.60;;;2.30;;
29358;SDS011;16347;53.232;6.556;2023-12-29T01:21:32;19.23;;;3.28;;
29358;SDS011;16347;53.232;6.556;2023-12-29T01:24:02;27.05;;;3.80;;
29358;SDS011;16347;53.232;6.556;2023-12-29T01:26:31;19.50;;;3.40;;
29358;SDS011;16347;53.232;6.556;2023-12-29T01:28:59;24.08;;;3.20;;
29358;SDS011;16347;53.232;6.556;2023-12-29T01:31:28;18.23;;;3.72;;
29358;SDS011;16347;53.232;6.556;2023-12-29T01:33:57;21.05;;;2.65;;
29358;SDS011;16347;53.232;6.556;2023-12-29T01:36:25;26.23;;;3.55;;
29358;SDS011;16347;53.232;6.556;2023-12-29T01:38:54;27.33;;;3.70;;
29358;SDS011;16347;53.232;6.556;2023-12-29T01:41:23;20.95;;;4.05;;
29358;SDS011;16347;53.232;6.556;2023-12-29T01:46:44;27.52;;;4.55;;
29358;SDS011;16347;53.232;6.556;2023-12-29T01:49:13;28.40;;;4.22;;
29358;SDS011;16347;53.232;6.556;2023-12-29T01:51:43;23.40;;;3.53;;
29358;SDS011;16347;53.232;6.556;2023-12-29T01:54:14;28.15;;;4.40;;
29358;SDS011;16347;53.232;6.556;2023-12-29T01:56:43;29.88;;;3.35;;
29358;SDS011;16347;53.232;6.556;2023-12-29T01:59:11;26.45;;;3.17;;
29358;SDS011;16347;53.232;6.556;2023-12-29T02:01:50;22.30;;;2.47;;
29358;SDS011;16347;53.232;6.556;2023-12-29T02:04:19;15.90;;;2.05;;
29358;SDS011;16347;53.232;6.556;2023-12-29T02:06:48;13.20;;;2.17;;
29358;SDS011;16347;53.232;6.556;2023-12-29T02:09:16;10.73;;;2.35;;
29358;SDS011;16347;53.232;6.556;2023-12-29T02:11:46;10.32;;;1.65;;
29358;SDS011;16347;53.232;6.556;2023-12-29T02:14:14;13.00;;;1.85;;
29358;SDS011;16347;53.232;6.556;2023-12-29T02:16:47;5.50;;;1.23;;
29358;SDS011;16347;53.232;6.556;2023-12-29T02:19:25;7.60;;;1.63;;
29358;SDS011;16347;53.232;6.556;2023-12-29T02:22:05;10.00;;;1.90;;
29358;SDS011;16347;53.232;6.556;2023-12-29T02:24:35;9.52;;;2.22;;
29358;SDS011;16347;53.232;6.556;2023-12-29T02:27:12;17.35;;;2.38;;
29358;SDS011;16347;53.232;6.556;2023-12-29T02:29:52;12.60;;;2.22;;
29358;SDS011;16347;53.232;6.556;2023-12-29T02:32:27;17.02;;;1.95;;
29358;SDS011;16347;53.232;6.556;2023-12-29T02:34:57;17.52;;;2.15;;
29358;SDS011;16347;53.232;6.556;2023-12-29T02:37:27;15.63;;;2.25;;
29358;SDS011;16347;53.232;6.556;2023-12-29T02:39:57;20.05;;;3.42;;
29358;SDS011;16347;53.232;6.556;2023-12-29T02:42:28;29.85;;;3.85;;
29358;SDS011;16347;53.232;6.556;2023-12-29T02:44:56;18.38;;;3.00;;
29358;SDS011;16347;53.232;6.556;2023-12-29T02:47:24;19.40;;;2.85;;
29358;SDS011;16347;53.232;6.556;2023-12-29T02:49:53;20.75;;;3.25;;
29358;SDS011;16347;53.232;6.556;2023-12-29T02:52:21;18.98;;;2.85;;
29358;SDS011;16347;53.232;6.556;2023-12-29T02:54:49;18.73;;;2.10;;
29358;SDS011;16347;53.232;6.556;2023-12-29T02:57:16;22.20;;;3.17;;
29358;SDS011;16347;53.232;6.556;2023-12-29T02:59:46;17.80;;;3.10;;
29358;SDS011;16347;53.232;6.556;2023-12-29T03:02:15;26.20;;;3.70;;
29358;SDS011;16347;53.232;6.556;2023-12-29T03:04:43;24.38;;;3.40;;
29358;SDS011;16347;53.232;6.556;2023-12-29T03:07:11;21.77;;;3.47;;
29358;SDS011;16347;53.232;6.556;2023-12-29T03:09:39;34.42;;;4.30;;
29358;SDS011;16347;53.232;6.556;2023-12-29T03:12:07;27.30;;;4.25;;
29358;SDS011;16347;53.232;6.556;2023-12-29T03:14:35;40.00;;;4.18;;
29358;SDS011;16347;53.232;6.556;2023-12-29T03:17:05;37.15;;;3.67;;
29358;SDS011;16347;53.232;6.556;2023-12-29T03:19:32;28.52;;;3.97;;
29358;SDS011;16347;53.232;6.556;2023-12-29T03:22:00;24.63;;;3.50;;
29358;SDS011;16347;53.232;6.556;2023-12-29T03:24:29;35.47;;;4.90;;
29358;SDS011;16347;53.232;6.556;2023-12-29T03:26:58;23.95;;;4.20;;
29358;SDS011;16347;53.232;6.556;2023-12-29T03:29:26;36.47;;;4.47;;
29358;SDS011;16347;53.232;6.556;2023-12-29T03:31:53;32.30;;;4.05;;
29358;SDS011;16347;53.232;6.556;2023-12-29T03:34:23;40.45;;;5.07;;
29358;SDS011;16347;53.232;6.556;2023-12-29T03:36:51;42.33;;;4.78;;
29358;SDS011;16347;53.232;6.556;2023-12-29T03:39:18;39.60;;;5.22;;
29358;SDS011;16347;53.232;6.556;2023-12-29T03:41:47;47.15;;;5.72;;
29358;SDS011;16347;53.232;6.556;2023-12-29T03:44:15;35.25;;;5.15;;
29358;SDS011;16347;53.232;6.556;2023-12-29T03:46:43;32.00;;;4.95;;
29358;SDS011;16347;53.232;6.556;2023-12-29T03:49:11;33.40;;;4.32;;
29358;SDS011;16347;53.232;6.556;2023-12-29T03:51:40;34.22;;;5.25;;
29358;SDS011;16347;53.232;6.556;2023-12-29T03:54:08;40.45;;;5.45;;
29358;SDS011;16347;53.232;6.556;2023-12-29T03:56:36;32.33;;;4.60;;
29358;SDS011;16347;53.232;6.556;2023-12-29T03:59:04;31.20;;;4.63;;
29358;SDS011;16347;53.232;6.556;2023-12-29T04:01:33;36.42;;;4.18;;
29358;SDS011;16347;53.232;6.556;2023-12-29T04:04:01;37.38;;;5.57;;
29358;SDS011;16347;53.232;6.556;2023-12-29T04:06:29;37.38;;;5.22;;
29358;SDS011;16347;53.232;6.556;2023-12-29T04:08:59;49.20;;;5.78;;
29358;SDS011;16347;53.232;6.556;2023-12-29T04:11:26;42.13;;;6.47;;
29358;SDS011;16347;53.232;6.556;2023-12-29T04:13:54;27.20;;;4.57;;
29358;SDS011;16347;53.232;6.556;2023-12-29T04:16:22;36.42;;;4.85;;
29358;SDS011;16347;53.232;6.556;2023-12-29T04:18:50;39.55;;;5.57;;
29358;SDS011;16347;53.232;6.556;2023-12-29T04:21:18;35.00;;;5.97;;
29358;SDS011;16347;53.232;6.556;2023-12-29T04:23:46;40.78;;;4.90;;
29358;SDS011;16347;53.232;6.556;2023-12-29T04:26:16;37.78;;;4.47;;
29358;SDS011;16347;53.232;6.556;2023-12-29T04:28:44;40.97;;;5.03;;
29358;SDS011;16347;53.232;6.556;2023-12-29T04:31:12;39.92;;;4.53;;
29358;SDS011;16347;53.232;6.556;2023-12-29T04:33:40;36.45;;;5.13;;
29358;SDS011;16347;53.232;6.556;2023-12-29T04:36:08;41.83;;;5.65;;
29358;SDS011;16347;53.232;6.556;2023-12-29T04:38:36;45.53;;;5.55;;
29358;SDS011;16347;53.232;6.556;2023-12-29T04:41:04;38.75;;;4.65;;
29358;SDS011;16347;53.232;6.556;2023-12-29T04:43:35;33.25;;;5.40;;
29358;SDS011;16347;53.232;6.556;2023-12-29T04:46:03;37.42;;;5.13;;
29358;SDS011;16347;53.232;6.556;2023-12-29T04:48:31;32.90;;;4.28;;
29358;SDS011;16347;53.232;6.556;2023-12-29T04:50:59;29.10;;;4.50;;
29358;SDS011;16347;53.232;6.556;2023-12-29T04:53:27;41.35;;;5.00;;
29358;SDS011;16347;53.232;6.556;2023-12-29T04:55:55;30.17;;;4.07;;
29358;SDS011;16347;53.232;6.556;2023-12-29T04:58:23;29.80;;;4.35;;
29358;SDS011;16347;53.232;6.556;2023-12-29T05:00:52;43.97;;;6.57;;
29358;SDS011;16347;53.232;6.556;2023-12-29T05:03:20;33.03;;;5.25;;
29358;SDS011;16347;53.232;6.556;2023-12-29T05:05:48;35.92;;;4.40;;
29358;SDS011;16347;53.232;6.556;2023-12-29T05:08:16;35.42;;;5.70;;
29358;SDS011;16347;53.232;6.556;2023-12-29T05:10:44;29.52;;;4.40;;
29358;SDS011;16347;53.232;6.556;2023-12-29T05:13:12;29.98;;;4.20;;
29358;SDS011;16347;53.232;6.556;2023-12-29T05:15:39;37.35;;;4.88;;
29358;SDS011;16347;53.232;6.556;2023-12-29T05:18:09;23.30;;;3.83;;
29358;SDS011;16347;53.232;6.556;2023-12-29T05:20:37;28.55;;;4.57;;
29358;SDS011;16347;53.232;6.556;2023-12-29T05:23:04;45.50;;;5.07;;
29358;SDS011;16347;53.232;6.556;2023-12-29T05:25:32;34.55;;;5.07;;
29358;SDS011;16347;53.232;6.556;2023-12-29T05:28:00;25.33;;;4.15;;
29358;SDS011;16347;53.232;6.556;2023-12-29T05:30:28;35.30;;;4.90;;
29358;SDS011;16347;53.232;6.556;2023-12-29T05:32:58;42.88;;;4.38;;
29358;SDS011;16347;53.232;6.556;2023-12-29T05:35:27;40.67;;;5.10;;
29358;SDS011;16347;53.232;6.556;2023-12-29T05:37:55;33.63;;;4.50;;
29358;SDS011;16347;53.232;6.556;2023-12-29T05:40:23;33.78;;;4.88;;
29358;SDS011;16347;53.232;6.556;2023-12-29T05:42:51;30.90;;;5.07;;
29358;SDS011;16347;53.232;6.556;2023-12-29T05:45:19;44.25;;;4.88;;
29358;SDS011;16347;53.232;6.556;2023-12-29T05:47:47;37.90;;;4.70;;
29358;SDS011;16347;53.232;6.556;2023-12-29T05:50:14;38.00;;;4.22;;
29358;SDS011;16347;53.232;6.556;2023-12-29T05:52:44;45.42;;;5.32;;
29358;SDS011;16347;53.232;6.556;2023-12-29T05:55:16;35.40;;;5.13;;
29358;SDS011;16347;53.232;6.556;2023-12-29T05:57:44;28.73;;;4.07;;
29358;SDS011;16347;53.232;6.556;2023-12-29T06:00:12;38.03;;;5.20;;
29358;SDS011;16347;53.232;6.556;2023-12-29T06:02:41;30.77;;;4.97;;
29358;SDS011;16347;53.232;6.556;2023-12-29T06:05:10;48.20;;;4.60;;
29358;SDS011;16347;53.232;6.556;2023-12-29T06:07:38;47.17;;;5.97;;
29358;SDS011;16347;53.232;6.556;2023-12-29T06:10:08;35.83;;;5.55;;
29358;SDS011;16347;53.232;6.556;2023-12-29T06:12:36;26.52;;;4.35;;
29358;SDS011;16347;53.232;6.556;2023-12-29T06:15:04;41.25;;;4.53;;
29358;SDS011;16347;53.232;6.556;2023-12-29T06:17:33;39.90;;;5.50;;
29358;SDS011;16347;53.232;6.556;2023-12-29T06:20:02;30.15;;;4.07;;
29358;SDS011;16347;53.232;6.556;2023-12-29T06:22:32;35.90;;;5.20;;
29358;SDS011;16347;53.232;6.556;2023-12-29T06:25:00;29.42;;;4.05;;
29358;SDS011;16347;53.232;6.556;2023-12-29T06:27:29;49.60;;;5.68;;
29358;SDS011;16347;53.232;6.556;2023-12-29T06:29:58;37.83;;;3.97;;
29358;SDS011;16347;53.232;6.556;2023-12-29T06:32:26;33.10;;;5.57;;
29358;SDS011;16347;53.232;6.556;2023-12-29T06:34:54;37.70;;;4.65;;
29358;SDS011;16347;53.232;6.556;2023-12-29T06:37:22;43.30;;;5.63;;
29358;SDS011;16347;53.232;6.556;2023-12-29T06:39:50;33.13;;;4.63;;
29358;SDS011;16347;53.232;6.556;2023-12-29T06:42:17;37.60;;;4.82;;
29358;SDS011;16347;53.232;6.556;2023-12-29T06:44:47;35.30;;;4.10;;
29358;SDS011;16347;53.232;6.556;2023-12-29T06:47:15;25.35;;;3.35;;
29358;SDS011;16347;53.232;6.556;2023-12-29T06:49:43;36.75;;;4.43;;
29358;SDS011;16347;53.232;6.556;2023-12-29T06:52:11;33.10;;;5.15;;
29358;SDS011;16347;53.232;6.556;2023-12-29T06:54:38;38.92;;;4.72;;
29358;SDS011;16347;53.232;6.556;2023-12-29T06:57:07;37.85;;;5.30;;
29358;SDS011;16347;53.232;6.556;2023-12-29T06:59:35;32.72;;;4.15;;
29358;SDS011;16347;53.232;6.556;2023-12-29T07:02:04;35.38;;;4.40;;
29358;SDS011;16347;53.232;6.556;2023-12-29T07:04:32;47.05;;;5.18;;
29358;SDS011;16347;53.232;6.556;2023-12-29T07:07:00;35.00;;;4.63;;
29358;SDS011;16347;53.232;6.556;2023-12-29T07:09:28;38.67;;;4.80;;
29358;SDS011;16347;53.232;6.556;2023-12-29T07:11:56;39.13;;;5.55;;
29358;SDS011;16347;53.232;6.556;2023-12-29T07:14:24;27.13;;;4.15;;
29358;SDS011;16347;53.232;6.556;2023-12-29T07:16:51;46.60;;;5.00;;
29358;SDS011;16347;53.232;6.556;2023-12-29T07:19:21;39.38;;;4.40;;
29358;SDS011;16347;53.232;6.556;2023-12-29T07:21:49;31.27;;;4.65;;
29358;SDS011;16347;53.232;6.556;2023-12-29T07:24:17;41.70;;;4.57;;
29358;SDS011;16347;53.232;6.556;2023-12-29T07:26:44;36.03;;;4.78;;
29358;SDS011;16347;53.232;6.556;2023-12-29T07:29:12;31.10;;;4.80;;
29358;SDS011;16347;53.232;6.556;2023-12-29T07:31:40;37.15;;;4.35;;
29358;SDS011;16347;53.232;6.556;2023-12-29T07:34:08;18.88;;;3.95;;
29358;SDS011;16347;53.232;6.556;2023-12-29T07:36:39;43.55;;;4.95;;
29358;SDS011;16347;53.232;6.556;2023-12-29T07:39:07;40.17;;;5.13;;
29358;SDS011;16347;53.232;6.556;2023-12-29T07:41:39;29.67;;;5.05;;
29358;SDS011;16347;53.232;6.556;2023-12-29T07:44:07;44.38;;;5.47;;
29358;SDS011;16347;53.232;6.556;2023-12-29T07:46:35;41.50;;;5.55;;
29358;SDS011;16347;53.232;6.556;2023-12-29T07:49:03;32.72;;;4.18;;
29358;SDS011;16347;53.232;6.556;2023-12-29T07:51:31;44.28;;;5.82;;
29358;SDS011;16347;53.232;6.556;2023-12-29T07:54:00;45.53;;;5.30;;
29358;SDS011;16347;53.232;6.556;2023-12-29T07:56:28;36.63;;;4.25;;
29358;SDS011;16347;53.232;6.556;2023-12-29T07:58:56;32.38;;;4.97;;
29358;SDS011;16347;53.232;6.556;2023-12-29T08:01:23;37.30;;;4.63;;
29358;SDS011;16347;53.232;6.556;2023-12-29T08:03:52;37.97;;;5.68;;
29358;SDS011;16347;53.232;6.556;2023-12-29T08:06:20;27.63;;;4.03;;
29358;SDS011;16347;53.232;6.556;2023-12-29T08:08:48;31.65;;;4.32;;
29358;SDS011;16347;53.232;6.556;2023-12-29T08:11:17;33.35;;;4.82;;
29358;SDS011;16347;53.232;6.556;2023-12-29T08:13:46;47.47;;;4.55;;
29358;SDS011;16347;53.232;6.556;2023-12-29T08:16:15;24.50;;;3.75;;
29358;SDS011;16347;53.232;6.556;2023-12-29T08:18:45;29.95;;;4.88;;
29358;SDS011;16347;53.232;6.556;2023-12-29T08:21:17;37.70;;;4.85;;
29358;SDS011;16347;53.232;6.556;2023-12-29T08:23:46;46.25;;;5.38;;
29358;SDS011;16347;53.232;6.556;2023-12-29T08:26:14;29.73;;;4.80;;
29358;SDS011;16347;53.232;6.556;2023-12-29T08:28:44;49.58;;;5.25;;
29358;SDS011;16347;53.232;6.556;2023-12-29T08:31:12;45.70;;;5.78;;
29358;SDS011;16347;53.232;6.556;2023-12-29T08:33:40;41.90;;;4.22;;
29358;SDS011;16347;53.232;6.556;2023-12-29T08:36:08;34.88;;;4.15;;
29358;SDS011;16347;53.232;6.556;2023-12-29T08:38:36;30.92;;;4.00;;
29358;SDS011;16347;53.232;6.556;2023-12-29T08:41:04;31.70;;;4.93;;
29358;SDS011;16347;53.232;6.556;2023-12-29T08:43:32;27.65;;;3.88;;
29358;SDS011;16347;53.232;6.556;2023-12-29T08:46:04;26.67;;;3.90;;
29358;SDS011;16347;53.232;6.556;2023-12-29T08:48:31;31.98;;;4.65;;
29358;SDS011;16347;53.232;6.556;2023-12-29T08:51:00;43.90;;;4.65;;
29358;SDS011;16347;53.232;6.556;2023-12-29T08:53:29;33.75;;;4.10;;
29358;SDS011;16347;53.232;6.556;2023-12-29T08:56:00;43.92;;;5.20;;
29358;SDS011;16347;53.232;6.556;2023-12-29T08:58:28;38.40;;;5.05;;
29358;SDS011;16347;53.232;6.556;2023-12-29T09:00:56;35.08;;;4.93;;
29358;SDS011;16347;53.232;6.556;2023-12-29T09:03:26;43.38;;;5.30;;
29358;SDS011;16347;53.232;6.556;2023-12-29T09:05:55;34.42;;;4.22;;
29358;SDS011;16347;53.232;6.556;2023-12-29T09:08:23;41.30;;;4.65;;
29358;SDS011;16347;53.232;6.556;2023-12-29T09:10:51;34.35;;;4.80;;
29358;SDS011;16347;53.232;6.556;2023-12-29T09:13:19;36.13;;;3.92;;
29358;SDS011;16347;53.232;6.556;2023-12-29T09:15:49;35.38;;;5.25;;
29358;SDS011;16347;53.232;6.556;2023-12-29T09:18:17;29.60;;;5.00;;
29358;SDS011;16347;53.232;6.556;2023-12-29T09:20:46;50.30;;;6.25;;
29358;SDS011;16347;53.232;6.556;2023-12-29T09:23:15;43.88;;;6.25;;
29358;SDS011;16347;53.232;6.556;2023-12-29T09:25:43;41.05;;;5.75;;
29358;SDS011;16347;53.232;6.556;2023-12-29T09:28:11;43.63;;;6.43;;
29358;SDS011;16347;53.232;6.556;2023-12-29T09:30:39;45.63;;;5.13;;
29358;SDS011;16347;53.232;6.556;2023-12-29T09:33:08;41.53;;;4.50;;
29358;SDS011;16347;53.232;6.556;2023-12-29T09:35:39;40.28;;;5.28;;
29358;SDS011;16347;53.232;6.556;2023-12-29T09:38:08;37.90;;;4.78;;
29358;SDS011;16347;53.232;6.556;2023-12-29T09:40:36;32.58;;;4.43;;
29358;SDS011;16347;53.232;6.556;2023-12-29T09:43:04;29.25;;;4.60;;
29358;SDS011;16347;53.232;6.556;2023-12-29T09:45:33;37.05;;;4.40;;
29358;SDS011;16347;53.232;6.556;2023-12-29T09:48:05;51.17;;;4.53;;
29358;SDS011;16347;53.232;6.556;2023-12-29T09:50:36;32.20;;;4.85;;
29358;SDS011;16347;53.232;6.556;2023-12-29T09:53:05;43.45;;;5.15;;
29358;SDS011;16347;53.232;6.556;2023-12-29T09:55:35;28.08;;;4.53;;
29358;SDS011;16347;53.232;6.556;2023-12-29T09:58:05;33.83;;;4.05;;
29358;SDS011;16347;53.232;6.556;2023-12-29T10:00:34;30.95;;;4.95;;
29358;SDS011;16347;53.232;6.556;2023-12-29T10:03:02;34.45;;;4.80;;
29358;SDS011;16347;53.232;6.556;2023-12-29T10:05:31;35.03;;;4.70;;
29358;SDS011;16347;53.232;6.556;2023-12-29T10:08:01;30.70;;;3.97;;
29358;SDS011;16347;53.232;6.556;2023-12-29T10:10:30;33.55;;;5.05;;
29358;SDS011;16347;53.232;6.556;2023-12-29T10:13:02;44.55;;;5.47;;
29358;SDS011;16347;53.232;6.556;2023-12-29T10:15:32;36.35;;;5.07;;
29358;SDS011;16347;53.232;6.556;2023-12-29T10:18:07;30.67;;;4.15;;
29358;SDS011;16347;53.232;6.556;2023-12-29T10:20:43;39.25;;;5.43;;
29358;SDS011;16347;53.232;6.556;2023-12-29T10:23:17;32.90;;;4.72;;
29358;SDS011;16347;53.232;6.556;2023-12-29T10:25:47;38.28;;;5.18;;
29358;SDS011;16347;53.232;6.556;2023-12-29T10:28:17;32.42;;;5.35;;
29358;SDS011;16347;53.232;6.556;2023-12-29T10:30:46;28.70;;;4.10;;
29358;SDS011;16347;53.232;6.556;2023-12-29T10:33:19;29.15;;;3.85;;
29358;SDS011;16347;53.232;6.556;2023-12-29T10:35:56;16.85;;;3.28;;
29358;SDS011;16347;53.232;6.556;2023-12-29T10:38:27;17.75;;;3.30;;
29358;SDS011;16347;53.232;6.556;2023-12-29T10:40:55;20.95;;;2.72;;
29358;SDS011;16347;53.232;6.556;2023-12-29T10:43:39;25.45;;;2.90;;
29358;SDS011;16347;53.232;6.556;2023-12-29T10:46:08;27.50;;;4.45;;
29358;SDS011;16347;53.232;6.556;2023-12-29T10:48:37;26.63;;;3.28;;
29358;SDS011;16347;53.232;6.556;2023-12-29T10:51:06;26.83;;;3.80;;
29358;SDS011;16347;53.232;6.556;2023-12-29T10:53:34;27.08;;;3.72;;
29358;SDS011;16347;53.232;6.556;2023-12-29T10:56:10;20.08;;;3.33;;
29358;SDS011;16347;53.232;6.556;2023-12-29T10:58:57;23.08;;;3.60;;
29358;SDS011;16347;53.232;6.556;2023-12-29T11:01:26;22.48;;;2.95;;
29358;SDS011;16347;53.232;6.556;2023-12-29T11:03:58;18.17;;;2.83;;
29358;SDS011;16347;53.232;6.556;2023-12-29T11:06:27;25.08;;;3.83;;
29358;SDS011;16347;53.232;6.556;2023-12-29T11:08:56;18.23;;;2.95;;
29358;SDS011;16347;53.232;6.556;2023-12-29T11:11:24;25.92;;;3.25;;
29358;SDS011;16347;53.232;6.556;2023-12-29T11:13:53;20.02;;;3.65;;
29358;SDS011;16347;53.232;6.556;2023-12-29T11:16:22;17.73;;;3.05;;
29358;SDS011;16347;53.232;6.556;2023-12-29T11:18:52;29.95;;;3.47;;
29358;SDS011;16347;53.232;6.556;2023-12-29T11:21:26;17.33;;;2.67;;
29358;SDS011;16347;53.232;6.556;2023-12-29T11:23:54;14.73;;;2.35;;
29358;SDS011;16347;53.232;6.556;2023-12-29T11:26:22;15.93;;;2.45;;
29358;SDS011;16347;53.232;6.556;2023-12-29T11:28:51;27.17;;;3.00;;
29358;SDS011;16347;53.232;6.556;2023-12-29T11:31:23;25.00;;;2.85;;
29358;SDS011;16347;53.232;6.556;2023-12-29T11:33:53;23.52;;;2.95;;
29358;SDS011;16347;53.232;6.556;2023-12-29T11:36:28;24.58;;;3.75;;
29358;SDS011;16347;53.232;6.556;2023-12-29T11:39:02;12.83;;;2.00;;
29358;SDS011;16347;53.232;6.556;2023-12-29T11:41:36;18.58;;;3.08;;
29358;SDS011;16347;53.232;6.556;2023-12-29T11:44:09;23.42;;;3.13;;
29358;SDS011;16347;53.232;6.556;2023-12-29T11:46:39;22.65;;;3.25;;
29358;SDS011;16347;53.232;6.556;2023-12-29T11:49:10;23.38;;;3.30;;
29358;SDS011;16347;53.232;6.556;2023-12-29T11:51:39;22.98;;;3.28;;
29358;SDS011;16347;53.232;6.556;2023-12-29T11:54:10;20.25;;;2.90;;
29358;SDS011;16347;53.232;6.556;2023-12-29T11:56:48;24.85;;;2.90;;
29358;SDS011;16347;53.232;6.556;2023-12-29T11:59:16;23.58;;;3.47;;
29358;SDS011;16347;53.232;6.556;2023-12-29T12:01:49;20.17;;;2.67;;
29358;SDS011;16347;53.232;6.556;2023-12-29T12:04:34;32.83;;;4.03;;
29358;SDS011;16347;53.232;6.556;2023-12-29T12:07:15;20.25;;;2.80;;
29358;SDS011;16347;53.232;6.556;2023-12-29T12:09:44;15.60;;;3.08;;
29358;SDS011;16347;53.232;6.556;2023-12-29T12:12:37;21.90;;;2.90;;
29358;SDS011;16347;53.232;6.556;2023-12-29T12:15:20;29.38;;;3.40;;
29358;SDS011;16347;53.232;6.556;2023-12-29T12:18:01;18.45;;;2.67;;
29358;SDS011;16347;53.232;6.556;2023-12-29T12:23:01;21.08;;;2.53;;
29358;SDS011;16347;53.232;6.556;2023-12-29T12:25:31;24.67;;;2.97;;
29358;SDS011;16347;53.232;6.556;2023-12-29T12:28:03;20.63;;;2.72;;
29358;SDS011;16347;53.232;6.556;2023-12-29T12:30:33;25.08;;;2.95;;
29358;SDS011;16347;53.232;6.556;2023-12-29T12:33:03;21.70;;;3.47;;
29358;SDS011;16347;53.232;6.556;2023-12-29T12:35:33;25.65;;;3.22;;
29358;SDS011;16347;53.232;6.556;2023-12-29T12:38:08;31.60;;;3.50;;
29358;SDS011;16347;53.232;6.556;2023-12-29T12:40:36;25.38;;;4.15;;
29358;SDS011;16347;53.232;6.556;2023-12-29T12:43:05;21.77;;;3.90;;
29358;SDS011;16347;53.232;6.556;2023-12-29T12:45:33;29.70;;;4.88;;
29358;SDS011;16347;53.232;6.556;2023-12-29T12:48:12;30.50;;;4.50;;
29358;SDS011;16347;53.232;6.556;2023-12-29T12:50:42;36.88;;;4.90;;
29358;SDS011;16347;53.232;6.556;2023-12-29T12:53:13;34.25;;;5.05;;
29358;SDS011;16347;53.232;6.556;2023-12-29T12:55:47;19.05;;;3.10;;
29358;SDS011;16347;53.232;6.556;2023-12-29T12:58:16;25.15;;;3.70;;
29358;SDS011;16347;53.232;6.556;2023-12-29T13:00:45;35.70;;;5.80;;
29358;SDS011;16347;53.232;6.556;2023-12-29T13:03:19;26.60;;;3.67;;
29358;SDS011;16347;53.232;6.556;2023-12-29T13:05:47;26.83;;;3.17;;
29358;SDS011;16347;53.232;6.556;2023-12-29T13:08:15;18.20;;;2.65;;
29358;SDS011;16347;53.232;6.556;2023-12-29T13:13:35;25.80;;;3.80;;
29358;SDS011;16347;53.232;6.556;2023-12-29T13:16:04;20.67;;;3.30;;
29358;SDS011;16347;53.232;6.556;2023-12-29T13:18:33;28.60;;;3.53;;
29358;SDS011;16347;53.232;6.556;2023-12-29T13:21:03;34.17;;;3.85;;
29358;SDS011;16347;53.232;6.556;2023-12-29T13:23:31;23.70;;;3.95;;
29358;SDS011;16347;53.232;6.556;2023-12-29T13:26:01;22.20;;;3.03;;
29358;SDS011;16347;53.232;6.556;2023-12-29T13:28:31;36.03;;;3.75;;
29358;SDS011;16347;53.232;6.556;2023-12-29T13:31:04;30.65;;;3.53;;
29358;SDS011;16347;53.232;6.556;2023-12-29T13:33:35;25.88;;;3.70;;
29358;SDS011;16347;53.232;6.556;2023-12-29T13:36:17;26.05;;;3.58;;
29358;SDS011;16347;53.232;6.556;2023-12-29T13:38:51;18.75;;;2.80;;
29358;SDS011;16347;53.232;6.556;2023-12-29T13:41:22;25.13;;;3.72;;
29358;SDS011;16347;53.232;6.556;2023-12-29T13:43:52;27.40;;;3.33;;
29358;SDS011;16347;53.232;6.556;2023-12-29T13:46:21;21.20;;;2.78;;
29358;SDS011;16347;53.232;6.556;2023-12-29T13:48:51;18.42;;;3.00;;
29358;SDS011;16347;53.232;6.556;2023-12-29T13:51:22;16.42;;;2.80;;
29358;SDS011;16347;53.232;6.556;2023-12-29T13:53:57;20.98;;;3.28;;
29358;SDS011;16347;53.232;6.556;2023-12-29T13:56:26;17.10;;;2.58;;
29358;SDS011;16347;53.232;6.556;2023-12-29T13:58:54;21.00;;;3.25;;
29358;SDS011;16347;53.232;6.556;2023-12-29T14:01:22;19.30;;;3.20;;
29358;SDS011;16347;53.232;6.556;2023-12-29T14:03:55;31.92;;;3.75;;
29358;SDS011;16347;53.232;6.556;2023-12-29T14:06:27;19.88;;;2.75;;
29358;SDS011;16347;53.232;6.556;2023-12-29T14:08:59;26.15;;;3.65;;
29358;SDS011;16347;53.232;6.556;2023-12-29T14:11:27;20.83;;;3.05;;
29358;SDS011;16347;53.232;6.556;2023-12-29T14:13:57;19.85;;;3.50;;
29358;SDS011;16347;53.232;6.556;2023-12-29T14:16:25;13.52;;;2.75;;
29358;SDS011;16347;53.232;6.556;2023-12-29T14:18:54;21.35;;;3.40;;
29358;SDS011;16347;53.232;6.556;2023-12-29T14:21:24;20.45;;;3.58;;
29358;SDS011;16347;53.232;6.556;2023-12-29T14:23:58;23.27;;;2.97;;
29358;SDS011;16347;53.232;6.556;2023-12-29T14:26:27;20.50;;;2.95;;
29358;SDS011;16347;53.232;6.556;2023-12-29T14:29:00;26.83;;;3.75;;
29358;SDS011;16347;53.232;6.556;2023-12-29T14:31:28;24.58;;;2.88;;
29358;SDS011;16347;53.232;6.556;2023-12-29T14:34:01;24.13;;;3.30;;
29358;SDS011;16347;53.232;6.556;2023-12-29T14:36:30;19.52;;;3.47;;
29358;SDS011;16347;53.232;6.556;2023-12-29T14:38:58;36.13;;;3.67;;
29358;SDS011;16347;53.232;6.556;2023-12-29T14:41:27;19.77;;;2.95;;
29358;SDS011;16347;53.232;6.556;2023-12-29T14:43:55;19.15;;;2.45;;
29358;SDS011;16347;53.232;6.556;2023-12-29T14:46:23;30.90;;;3.85;;
29358;SDS011;16347;53.232;6.556;2023-12-29T14:48:51;16.67;;;2.65;;
29358;SDS011;16347;53.232;6.556;2023-12-29T14:51:21;17.98;;;2.88;;
29358;SDS011;16347;53.232;6.556;2023-12-29T14:53:49;20.25;;;3.22;;
29358;SDS011;16347;53.232;6.556;2023-12-29T14:56:17;19.83;;;3.10;;
29358;SDS011;16347;53.232;6.556;2023-12-29T14:58:45;18.98;;;3.08;;